Amherst, Ohio
Current Conditions -  °F | °C
As of 3:53 AM on Wednesday 22 Oct 2014 (Local Time) from KLPR Reporting Station
Overcast Overcast  
Wind Chill: 41°   Ceiling: 1200
Heat Index: 47°   Visibility: 10mi
Dew Point: 44°   Wind: 13mph
Humidity: 90%   Direction: 20°NNE
Pressure: 30.15"   Gusts: NA
Location:  41.41°N, 82.24°W
Report Text: KLPR 220753Z AUTO 02011KT 10SM OVC012 08/07 A3015 RMK AO2 SLP213 T00830067 TSNO
Loading
Personal Weather Stations






























Interactive Weather Map
Tropical Storm Tracking
New forecast layout! Learn more

10-Day Weather Forecast

Advertisements
Track Severe Weather on mobile